sensor_id;sensor_type;location;lat;lon;timestamp;P1;durP1;ratioP1;P2;durP2;ratioP2
10442;SDS011;5269;51.146;16.986;2022-09-01T00:04:28;6.60;;;3.20;;
10442;SDS011;5269;51.146;16.986;2022-09-01T00:07:03;3.47;;;2.80;;
10442;SDS011;5269;51.146;16.986;2022-09-01T00:09:48;4.13;;;2.53;;
10442;SDS011;5269;51.146;16.986;2022-09-01T00:12:26;5.13;;;2.85;;
10442;SDS011;5269;51.146;16.986;2022-09-01T00:14:59;3.22;;;2.70;;
10442;SDS011;5269;51.146;16.986;2022-09-01T00:20:39;2.70;;;2.50;;
10442;SDS011;5269;51.146;16.986;2022-09-01T00:23:30;4.47;;;2.63;;
10442;SDS011;5269;51.146;16.986;2022-09-01T00:26:13;4.75;;;2.90;;
10442;SDS011;5269;51.146;16.986;2022-09-01T00:28:49;7.40;;;2.90;;
10442;SDS011;5269;51.146;16.986;2022-09-01T00:31:42;2.85;;;2.50;;
10442;SDS011;5269;51.146;16.986;2022-09-01T00:34:34;8.40;;;2.70;;
10442;SDS011;5269;51.146;16.986;2022-09-01T00:37:22;4.20;;;2.53;;
10442;SDS011;5269;51.146;16.986;2022-09-01T00:42:40;4.68;;;2.53;;
10442;SDS011;5269;51.146;16.986;2022-09-01T00:45:43;3.05;;;2.53;;
10442;SDS011;5269;51.146;16.986;2022-09-01T00:48:23;5.18;;;2.58;;
10442;SDS011;5269;51.146;16.986;2022-09-01T00:50:58;4.07;;;2.88;;
10442;SDS011;5269;51.146;16.986;2022-09-01T00:53:32;3.53;;;2.50;;
10442;SDS011;5269;51.146;16.986;2022-09-01T00:56:17;3.50;;;2.50;;
10442;SDS011;5269;51.146;16.986;2022-09-01T00:58:54;2.80;;;2.50;;
10442;SDS011;5269;51.146;16.986;2022-09-01T01:01:52;5.60;;;2.38;;
10442;SDS011;5269;51.146;16.986;2022-09-01T01:04:34;5.18;;;2.78;;
10442;SDS011;5269;51.146;16.986;2022-09-01T01:07:12;3.60;;;2.50;;
10442;SDS011;5269;51.146;16.986;2022-09-01T01:16:31;5.45;;;2.60;;
10442;SDS011;5269;51.146;16.986;2022-09-01T01:25:29;3.42;;;2.45;;
10442;SDS011;5269;51.146;16.986;2022-09-01T01:28:30;2.95;;;2.33;;
10442;SDS011;5269;51.146;16.986;2022-09-01T01:31:23;3.60;;;2.40;;
10442;SDS011;5269;51.146;16.986;2022-09-01T01:33:59;2.75;;;2.25;;
10442;SDS011;5269;51.146;16.986;2022-09-01T01:36:37;2.60;;;2.40;;
10442;SDS011;5269;51.146;16.986;2022-09-01T01:39:12;3.40;;;2.25;;
10442;SDS011;5269;51.146;16.986;2022-09-01T01:41:53;2.50;;;2.20;;
10442;SDS011;5269;51.146;16.986;2022-09-01T01:44:35;2.83;;;2.20;;
10442;SDS011;5269;51.146;16.986;2022-09-01T01:47:37;2.42;;;2.20;;
10442;SDS011;5269;51.146;16.986;2022-09-01T01:50:34;3.00;;;2.22;;
10442;SDS011;5269;51.146;16.986;2022-09-01T01:53:13;2.45;;;2.22;;
10442;SDS011;5269;51.146;16.986;2022-09-01T01:56:12;6.75;;;2.40;;
10442;SDS011;5269;51.146;16.986;2022-09-01T01:59:24;2.50;;;2.30;;
10442;SDS011;5269;51.146;16.986;2022-09-01T02:07:33;6.65;;;2.30;;
10442;SDS011;5269;51.146;16.986;2022-09-01T02:10:27;2.65;;;2.42;;
10442;SDS011;5269;51.146;16.986;2022-09-01T02:12:59;3.15;;;2.28;;
10442;SDS011;5269;51.146;16.986;2022-09-01T02:15:45;2.67;;;2.00;;
10442;SDS011;5269;51.146;16.986;2022-09-01T02:18:19;2.90;;;2.30;;
10442;SDS011;5269;51.146;16.986;2022-09-01T02:21:08;4.10;;;2.30;;
10442;SDS011;5269;51.146;16.986;2022-09-01T02:23:44;3.30;;;1.90;;
10442;SDS011;5269;51.146;16.986;2022-09-01T02:26:44;3.17;;;2.20;;
10442;SDS011;5269;51.146;16.986;2022-09-01T02:29:14;3.03;;;2.03;;
10442;SDS011;5269;51.146;16.986;2022-09-01T02:31:52;5.07;;;2.38;;
10442;SDS011;5269;51.146;16.986;2022-09-01T02:34:29;3.25;;;2.53;;
10442;SDS011;5269;51.146;16.986;2022-09-01T02:37:08;4.30;;;2.47;;
10442;SDS011;5269;51.146;16.986;2022-09-01T02:39:40;3.17;;;2.20;;
10442;SDS011;5269;51.146;16.986;2022-09-01T02:42:44;4.20;;;2.58;;
10442;SDS011;5269;51.146;16.986;2022-09-01T02:45:34;3.60;;;2.33;;
10442;SDS011;5269;51.146;16.986;2022-09-01T02:48:12;4.30;;;2.75;;
10442;SDS011;5269;51.146;16.986;2022-09-01T02:50:42;2.78;;;2.47;;
10442;SDS011;5269;51.146;16.986;2022-09-01T02:53:19;3.85;;;2.70;;
10442;SDS011;5269;51.146;16.986;2022-09-01T02:55:57;3.40;;;2.40;;
10442;SDS011;5269;51.146;16.986;2022-09-01T02:58:53;4.05;;;2.58;;
10442;SDS011;5269;51.146;16.986;2022-09-01T03:01:59;3.05;;;2.40;;
10442;SDS011;5269;51.146;16.986;2022-09-01T03:07:29;3.05;;;2.60;;
10442;SDS011;5269;51.146;16.986;2022-09-01T03:10:07;4.50;;;2.40;;
10442;SDS011;5269;51.146;16.986;2022-09-01T03:12:35;3.15;;;2.28;;
10442;SDS011;5269;51.146;16.986;2022-09-01T03:15:07;4.15;;;2.47;;
10442;SDS011;5269;51.146;16.986;2022-09-01T03:17:37;2.75;;;2.42;;
10442;SDS011;5269;51.146;16.986;2022-09-01T03:20:14;6.03;;;2.65;;
10442;SDS011;5269;51.146;16.986;2022-09-01T03:22:47;5.07;;;2.55;;
10442;SDS011;5269;51.146;16.986;2022-09-01T03:25:17;3.67;;;2.65;;
10442;SDS011;5269;51.146;16.986;2022-09-01T03:28:01;3.80;;;2.70;;
10442;SDS011;5269;51.146;16.986;2022-09-01T03:30:34;4.22;;;2.55;;
10442;SDS011;5269;51.146;16.986;2022-09-01T03:33:12;2.85;;;2.42;;
10442;SDS011;5269;51.146;16.986;2022-09-01T03:35:53;4.93;;;2.92;;
10442;SDS011;5269;51.146;16.986;2022-09-01T03:38:25;2.92;;;2.60;;
10442;SDS011;5269;51.146;16.986;2022-09-01T03:40:54;4.45;;;2.90;;
10442;SDS011;5269;51.146;16.986;2022-09-01T03:43:34;5.78;;;2.88;;
10442;SDS011;5269;51.146;16.986;2022-09-01T03:46:04;4.35;;;2.50;;
10442;SDS011;5269;51.146;16.986;2022-09-01T03:48:44;2.97;;;2.47;;
10442;SDS011;5269;51.146;16.986;2022-09-01T03:51:19;2.63;;;2.42;;
10442;SDS011;5269;51.146;16.986;2022-09-01T03:57:08;3.75;;;2.70;;
10442;SDS011;5269;51.146;16.986;2022-09-01T04:02:58;4.97;;;2.83;;
10442;SDS011;5269;51.146;16.986;2022-09-01T04:05:30;3.95;;;2.70;;
10442;SDS011;5269;51.146;16.986;2022-09-01T04:08:09;6.20;;;2.90;;
10442;SDS011;5269;51.146;16.986;2022-09-01T04:10:54;3.70;;;2.60;;
10442;SDS011;5269;51.146;16.986;2022-09-01T04:13:23;3.67;;;2.50;;
10442;SDS011;5269;51.146;16.986;2022-09-01T04:19:20;3.42;;;2.58;;
10442;SDS011;5269;51.146;16.986;2022-09-01T04:21:54;3.53;;;3.10;;
10442;SDS011;5269;51.146;16.986;2022-09-01T04:24:43;4.18;;;2.97;;
10442;SDS011;5269;51.146;16.986;2022-09-01T04:27:13;7.22;;;3.10;;
10442;SDS011;5269;51.146;16.986;2022-09-01T04:29:48;4.22;;;3.08;;
10442;SDS011;5269;51.146;16.986;2022-09-01T04:32:27;3.95;;;2.53;;
10442;SDS011;5269;51.146;16.986;2022-09-01T04:34:54;4.65;;;2.83;;
10442;SDS011;5269;51.146;16.986;2022-09-01T04:37:31;3.10;;;2.60;;
10442;SDS011;5269;51.146;16.986;2022-09-01T04:40:17;3.03;;;2.70;;
10442;SDS011;5269;51.146;16.986;2022-09-01T04:42:52;5.70;;;2.70;;
10442;SDS011;5269;51.146;16.986;2022-09-01T04:45:19;4.18;;;2.70;;
10442;SDS011;5269;51.146;16.986;2022-09-01T04:47:53;2.90;;;2.60;;
10442;SDS011;5269;51.146;16.986;2022-09-01T04:50:38;7.18;;;3.95;;
10442;SDS011;5269;51.146;16.986;2022-09-01T04:53:49;5.88;;;3.10;;
10442;SDS011;5269;51.146;16.986;2022-09-01T04:56:36;4.72;;;2.70;;
10442;SDS011;5269;51.146;16.986;2022-09-01T04:59:14;3.42;;;2.92;;
10442;SDS011;5269;51.146;16.986;2022-09-01T05:01:44;3.50;;;2.70;;
10442;SDS011;5269;51.146;16.986;2022-09-01T05:07:38;5.55;;;2.67;;
10442;SDS011;5269;51.146;16.986;2022-09-01T05:10:19;2.72;;;2.30;;
10442;SDS011;5269;51.146;16.986;2022-09-01T05:19:40;3.80;;;2.70;;
10442;SDS011;5269;51.146;16.986;2022-09-01T05:22:11;3.20;;;2.53;;
10442;SDS011;5269;51.146;16.986;2022-09-01T05:24:39;3.85;;;2.60;;
10442;SDS011;5269;51.146;16.986;2022-09-01T05:27:07;4.35;;;2.88;;
10442;SDS011;5269;51.146;16.986;2022-09-01T05:29:34;5.57;;;2.90;;
10442;SDS011;5269;51.146;16.986;2022-09-01T05:32:04;3.50;;;2.33;;
10442;SDS011;5269;51.146;16.986;2022-09-01T05:41:14;3.88;;;2.92;;
10442;SDS011;5269;51.146;16.986;2022-09-01T05:43:45;3.00;;;2.60;;
10442;SDS011;5269;51.146;16.986;2022-09-01T05:46:16;4.15;;;2.95;;
10442;SDS011;5269;51.146;16.986;2022-09-01T05:48:49;3.28;;;2.72;;
10442;SDS011;5269;51.146;16.986;2022-09-01T05:51:21;2.60;;;2.40;;
10442;SDS011;5269;51.146;16.986;2022-09-01T05:53:55;3.78;;;2.60;;
10442;SDS011;5269;51.146;16.986;2022-09-01T05:56:28;3.58;;;2.60;;
10442;SDS011;5269;51.146;16.986;2022-09-01T05:59:17;2.55;;;2.30;;
10442;SDS011;5269;51.146;16.986;2022-09-01T06:01:45;3.90;;;2.50;;
10442;SDS011;5269;51.146;16.986;2022-09-01T06:04:14;4.40;;;2.60;;
10442;SDS011;5269;51.146;16.986;2022-09-01T06:06:50;3.67;;;2.30;;
10442;SDS011;5269;51.146;16.986;2022-09-01T06:09:22;2.67;;;2.42;;
10442;SDS011;5269;51.146;16.986;2022-09-01T06:11:51;2.53;;;2.33;;
10442;SDS011;5269;51.146;16.986;2022-09-01T06:17:52;2.33;;;2.13;;
10442;SDS011;5269;51.146;16.986;2022-09-01T06:26:29;4.38;;;2.50;;
10442;SDS011;5269;51.146;16.986;2022-09-01T06:29:01;4.47;;;2.80;;
10442;SDS011;5269;51.146;16.986;2022-09-01T06:31:31;3.05;;;2.20;;
10442;SDS011;5269;51.146;16.986;2022-09-01T06:34:03;6.60;;;2.80;;
10442;SDS011;5269;51.146;16.986;2022-09-01T06:36:44;3.88;;;2.50;;
10442;SDS011;5269;51.146;16.986;2022-09-01T06:39:31;6.22;;;2.58;;
10442;SDS011;5269;51.146;16.986;2022-09-01T06:45:07;2.58;;;2.30;;
10442;SDS011;5269;51.146;16.986;2022-09-01T06:47:39;2.70;;;2.38;;
10442;SDS011;5269;51.146;16.986;2022-09-01T06:50:09;3.10;;;2.65;;
10442;SDS011;5269;51.146;16.986;2022-09-01T06:52:39;3.10;;;2.30;;
10442;SDS011;5269;51.146;16.986;2022-09-01T06:55:07;2.78;;;2.28;;
10442;SDS011;5269;51.146;16.986;2022-09-01T06:57:42;3.00;;;2.50;;
10442;SDS011;5269;51.146;16.986;2022-09-01T07:00:20;2.50;;;2.30;;
10442;SDS011;5269;51.146;16.986;2022-09-01T07:02:51;2.53;;;2.33;;
10442;SDS011;5269;51.146;16.986;2022-09-01T07:11:47;3.85;;;2.88;;
10442;SDS011;5269;51.146;16.986;2022-09-01T07:14:16;3.10;;;2.35;;
10442;SDS011;5269;51.146;16.986;2022-09-01T07:16:46;2.35;;;1.92;;
10442;SDS011;5269;51.146;16.986;2022-09-01T07:19:14;2.20;;;1.90;;
10442;SDS011;5269;51.146;16.986;2022-09-01T07:21:42;3.40;;;2.75;;
10442;SDS011;5269;51.146;16.986;2022-09-01T07:24:10;2.50;;;2.30;;
10442;SDS011;5269;51.146;16.986;2022-09-01T07:26:43;2.55;;;2.17;;
10442;SDS011;5269;51.146;16.986;2022-09-01T07:29:15;2.78;;;2.22;;
10442;SDS011;5269;51.146;16.986;2022-09-01T07:31:48;4.32;;;2.20;;
10442;SDS011;5269;51.146;16.986;2022-09-01T07:34:17;5.65;;;2.92;;
10442;SDS011;5269;51.146;16.986;2022-09-01T07:36:45;2.92;;;2.20;;
10442;SDS011;5269;51.146;16.986;2022-09-01T07:39:13;2.20;;;1.95;;
10442;SDS011;5269;51.146;16.986;2022-09-01T07:41:43;3.60;;;1.83;;
10442;SDS011;5269;51.146;16.986;2022-09-01T07:44:10;3.90;;;2.10;;
10442;SDS011;5269;51.146;16.986;2022-09-01T07:46:37;4.55;;;2.20;;
10442;SDS011;5269;51.146;16.986;2022-09-01T07:49:09;2.28;;;1.88;;
10442;SDS011;5269;51.146;16.986;2022-09-01T07:51:46;4.53;;;2.30;;
10442;SDS011;5269;51.146;16.986;2022-09-01T07:54:36;2.30;;;2.10;;
10442;SDS011;5269;51.146;16.986;2022-09-01T07:57:09;23.65;;;5.90;;
10442;SDS011;5269;51.146;16.986;2022-09-01T07:59:36;2.47;;;2.17;;
10442;SDS011;5269;51.146;16.986;2022-09-01T08:02:04;2.00;;;1.90;;
10442;SDS011;5269;51.146;16.986;2022-09-01T08:04:36;3.15;;;1.90;;
10442;SDS011;5269;51.146;16.986;2022-09-01T08:07:04;2.20;;;1.80;;
10442;SDS011;5269;51.146;16.986;2022-09-01T08:09:30;3.35;;;2.00;;
10442;SDS011;5269;51.146;16.986;2022-09-01T08:11:57;3.33;;;2.05;;
10442;SDS011;5269;51.146;16.986;2022-09-01T08:14:24;1.80;;;1.50;;
10442;SDS011;5269;51.146;16.986;2022-09-01T08:16:51;2.40;;;1.83;;
10442;SDS011;5269;51.146;16.986;2022-09-01T08:19:18;1.75;;;1.65;;
10442;SDS011;5269;51.146;16.986;2022-09-01T08:21:46;4.47;;;1.63;;
10442;SDS011;5269;51.146;16.986;2022-09-01T08:24:14;1.65;;;1.55;;
10442;SDS011;5269;51.146;16.986;2022-09-01T08:26:41;2.22;;;1.67;;
10442;SDS011;5269;51.146;16.986;2022-09-01T08:29:07;4.13;;;1.60;;
10442;SDS011;5269;51.146;16.986;2022-09-01T08:31:35;1.70;;;1.60;;
10442;SDS011;5269;51.146;16.986;2022-09-01T08:34:02;2.38;;;1.40;;
10442;SDS011;5269;51.146;16.986;2022-09-01T08:36:30;2.03;;;1.83;;
10442;SDS011;5269;51.146;16.986;2022-09-01T08:38:59;1.70;;;1.60;;
10442;SDS011;5269;51.146;16.986;2022-09-01T08:41:30;4.30;;;1.83;;
10442;SDS011;5269;51.146;16.986;2022-09-01T08:44:08;1.90;;;1.80;;
10442;SDS011;5269;51.146;16.986;2022-09-01T08:46:43;2.47;;;1.50;;
10442;SDS011;5269;51.146;16.986;2022-09-01T08:49:13;1.88;;;1.75;;
10442;SDS011;5269;51.146;16.986;2022-09-01T08:51:45;1.90;;;1.80;;
10442;SDS011;5269;51.146;16.986;2022-09-01T08:54:19;1.90;;;1.80;;
10442;SDS011;5269;51.146;16.986;2022-09-01T08:56:50;2.03;;;1.77;;
10442;SDS011;5269;51.146;16.986;2022-09-01T08:59:21;2.13;;;1.92;;
10442;SDS011;5269;51.146;16.986;2022-09-01T09:01:50;1.80;;;1.67;;
10442;SDS011;5269;51.146;16.986;2022-09-01T09:04:29;1.90;;;1.80;;
10442;SDS011;5269;51.146;16.986;2022-09-01T09:07:12;1.75;;;1.63;;
10442;SDS011;5269;51.146;16.986;2022-09-01T09:09:49;2.15;;;1.70;;
10442;SDS011;5269;51.146;16.986;2022-09-01T09:15:16;1.90;;;1.80;;
10442;SDS011;5269;51.146;16.986;2022-09-01T09:17:52;1.80;;;1.70;;
10442;SDS011;5269;51.146;16.986;2022-09-01T09:20:24;2.17;;;1.67;;
10442;SDS011;5269;51.146;16.986;2022-09-01T09:22:51;2.20;;;2.00;;
10442;SDS011;5269;51.146;16.986;2022-09-01T09:25:21;1.90;;;1.80;;
10442;SDS011;5269;51.146;16.986;2022-09-01T09:27:49;1.95;;;1.60;;
10442;SDS011;5269;51.146;16.986;2022-09-01T09:30:18;1.80;;;1.70;;
10442;SDS011;5269;51.146;16.986;2022-09-01T09:32:48;1.70;;;1.60;;
10442;SDS011;5269;51.146;16.986;2022-09-01T09:35:22;2.03;;;1.77;;
10442;SDS011;5269;51.146;16.986;2022-09-01T09:37:53;2.40;;;1.52;;
10442;SDS011;5269;51.146;16.986;2022-09-01T09:40:23;1.63;;;1.52;;
10442;SDS011;5269;51.146;16.986;2022-09-01T09:43:01;2.70;;;1.80;;
10442;SDS011;5269;51.146;16.986;2022-09-01T09:45:33;5.90;;;2.20;;
10442;SDS011;5269;51.146;16.986;2022-09-01T09:48:04;1.80;;;1.70;;
10442;SDS011;5269;51.146;16.986;2022-09-01T09:50:35;2.05;;;1.85;;
10442;SDS011;5269;51.146;16.986;2022-09-01T09:53:11;2.60;;;1.80;;
10442;SDS011;5269;51.146;16.986;2022-09-01T09:55:52;1.65;;;1.55;;
10442;SDS011;5269;51.146;16.986;2022-09-01T09:58:23;1.83;;;1.73;;
10442;SDS011;5269;51.146;16.986;2022-09-01T10:00:57;1.85;;;1.50;;
10442;SDS011;5269;51.146;16.986;2022-09-01T10:06:30;1.80;;;1.70;;
10442;SDS011;5269;51.146;16.986;2022-09-01T10:09:00;2.30;;;1.67;;
10442;SDS011;5269;51.146;16.986;2022-09-01T10:11:35;1.75;;;1.73;;
10442;SDS011;5269;51.146;16.986;2022-09-01T10:14:05;2.40;;;1.70;;
10442;SDS011;5269;51.146;16.986;2022-09-01T10:16:36;1.90;;;1.70;;
10442;SDS011;5269;51.146;16.986;2022-09-01T10:19:06;2.00;;;1.90;;
10442;SDS011;5269;51.146;16.986;2022-09-01T10:21:38;2.35;;;1.73;;
10442;SDS011;5269;51.146;16.986;2022-09-01T10:24:10;1.70;;;1.60;;
10442;SDS011;5269;51.146;16.986;2022-09-01T10:26:46;1.80;;;1.70;;
10442;SDS011;5269;51.146;16.986;2022-09-01T10:29:18;1.77;;;1.60;;
10442;SDS011;5269;51.146;16.986;2022-09-01T10:31:49;2.00;;;1.90;;
10442;SDS011;5269;51.146;16.986;2022-09-01T10:34:18;1.80;;;1.70;;
10442;SDS011;5269;51.146;16.986;2022-09-01T10:36:48;1.80;;;1.70;;
10442;SDS011;5269;51.146;16.986;2022-09-01T10:39:16;3.22;;;1.60;;
10442;SDS011;5269;51.146;16.986;2022-09-01T10:41:56;1.67;;;1.50;;
10442;SDS011;5269;51.146;16.986;2022-09-01T10:44:31;2.38;;;1.80;;
10442;SDS011;5269;51.146;16.986;2022-09-01T10:46:59;1.80;;;1.70;;
10442;SDS011;5269;51.146;16.986;2022-09-01T10:55:40;1.88;;;1.60;;
10442;SDS011;5269;51.146;16.986;2022-09-01T11:01:12;2.40;;;2.20;;
10442;SDS011;5269;51.146;16.986;2022-09-01T11:09:22;2.70;;;2.15;;
10442;SDS011;5269;51.146;16.986;2022-09-01T11:14:55;1.60;;;1.50;;
10442;SDS011;5269;51.146;16.986;2022-09-01T11:17:24;1.83;;;1.73;;
10442;SDS011;5269;51.146;16.986;2022-09-01T11:19:54;1.40;;;1.40;;
10442;SDS011;5269;51.146;16.986;2022-09-01T11:22:32;1.23;;;1.20;;
10442;SDS011;5269;51.146;16.986;2022-09-01T11:25:08;1.75;;;1.65;;
10442;SDS011;5269;51.146;16.986;2022-09-01T11:27:55;3.92;;;1.50;;
10442;SDS011;5269;51.146;16.986;2022-09-01T11:30:36;1.60;;;1.50;;
10442;SDS011;5269;51.146;16.986;2022-09-01T11:33:26;2.17;;;1.63;;
10442;SDS011;5269;51.146;16.986;2022-09-01T11:36:12;1.40;;;1.40;;
10442;SDS011;5269;51.146;16.986;2022-09-01T11:38:48;1.65;;;1.55;;
10442;SDS011;5269;51.146;16.986;2022-09-01T11:41:20;2.05;;;1.88;;
10442;SDS011;5269;51.146;16.986;2022-09-01T11:43:49;1.80;;;1.67;;
10442;SDS011;5269;51.146;16.986;2022-09-01T11:46:23;1.40;;;1.40;;
10442;SDS011;5269;51.146;16.986;2022-09-01T11:48:52;1.20;;;1.20;;
10442;SDS011;5269;51.146;16.986;2022-09-01T11:51:21;1.50;;;1.50;;
10442;SDS011;5269;51.146;16.986;2022-09-01T11:53:51;1.92;;;1.50;;
10442;SDS011;5269;51.146;16.986;2022-09-01T11:56:25;1.83;;;1.65;;
10442;SDS011;5269;51.146;16.986;2022-09-01T11:58:53;1.70;;;1.60;;
10442;SDS011;5269;51.146;16.986;2022-09-01T12:01:30;1.60;;;1.50;;
10442;SDS011;5269;51.146;16.986;2022-09-01T12:10:26;1.70;;;1.60;;
10442;SDS011;5269;51.146;16.986;2022-09-01T12:13:03;1.50;;;1.40;;
10442;SDS011;5269;51.146;16.986;2022-09-01T12:15:32;1.50;;;1.50;;
10442;SDS011;5269;51.146;16.986;2022-09-01T12:18:11;1.30;;;1.30;;
10442;SDS011;5269;51.146;16.986;2022-09-01T12:24:09;1.75;;;1.65;;
10442;SDS011;5269;51.146;16.986;2022-09-01T12:26:40;1.52;;;1.40;;
10442;SDS011;5269;51.146;16.986;2022-09-01T12:29:08;2.03;;;1.50;;
10442;SDS011;5269;51.146;16.986;2022-09-01T12:31:38;1.98;;;1.88;;
10442;SDS011;5269;51.146;16.986;2022-09-01T12:34:20;1.60;;;1.50;;
10442;SDS011;5269;51.146;16.986;2022-09-01T12:37:05;1.35;;;1.25;;
10442;SDS011;5269;51.146;16.986;2022-09-01T12:39:36;1.10;;;1.10;;
10442;SDS011;5269;51.146;16.986;2022-09-01T12:42:09;1.52;;;1.40;;
10442;SDS011;5269;51.146;16.986;2022-09-01T12:45:04;1.60;;;1.50;;
10442;SDS011;5269;51.146;16.986;2022-09-01T12:55:09;1.50;;;1.40;;
10442;SDS011;5269;51.146;16.986;2022-09-01T13:01:47;1.30;;;1.30;;
10442;SDS011;5269;51.146;16.986;2022-09-01T13:08:19;1.50;;;1.50;;
10442;SDS011;5269;51.146;16.986;2022-09-01T13:17:32;1.38;;;1.35;;
10442;SDS011;5269;51.146;16.986;2022-09-01T13:19:59;1.67;;;1.58;;
10442;SDS011;5269;51.146;16.986;2022-09-01T13:22:26;1.40;;;1.40;;
10442;SDS011;5269;51.146;16.986;2022-09-01T13:24:53;2.05;;;1.45;;
10442;SDS011;5269;51.146;16.986;2022-09-01T13:27:21;1.35;;;1.35;;
10442;SDS011;5269;51.146;16.986;2022-09-01T13:30:04;1.25;;;1.25;;
10442;SDS011;5269;51.146;16.986;2022-09-01T13:35:46;1.52;;;1.40;;
10442;SDS011;5269;51.146;16.986;2022-09-01T13:38:17;1.40;;;1.30;;
10442;SDS011;5269;51.146;16.986;2022-09-01T13:40:45;2.10;;;1.70;;
10442;SDS011;5269;51.146;16.986;2022-09-01T13:43:13;1.50;;;1.40;;
10442;SDS011;5269;51.146;16.986;2022-09-01T13:45:44;1.45;;;1.35;;
10442;SDS011;5269;51.146;16.986;2022-09-01T13:48:12;1.27;;;1.25;;
10442;SDS011;5269;51.146;16.986;2022-09-01T13:50:44;1.50;;;1.40;;
10442;SDS011;5269;51.146;16.986;2022-09-01T13:53:13;1.30;;;1.30;;
10442;SDS011;5269;51.146;16.986;2022-09-01T13:55:41;1.98;;;1.50;;
10442;SDS011;5269;51.146;16.986;2022-09-01T13:58:09;1.38;;;1.30;;
10442;SDS011;5269;51.146;16.986;2022-09-01T14:00:37;1.30;;;1.30;;
10442;SDS011;5269;51.146;16.986;2022-09-01T14:03:05;1.60;;;1.50;;
10442;SDS011;5269;51.146;16.986;2022-09-01T14:05:34;1.65;;;1.55;;
10442;SDS011;5269;51.146;16.986;2022-09-01T14:08:05;1.30;;;1.20;;
10442;SDS011;5269;51.146;16.986;2022-09-01T14:10:36;1.40;;;1.30;;
10442;SDS011;5269;51.146;16.986;2022-09-01T14:13:05;1.60;;;1.50;;
10442;SDS011;5269;51.146;16.986;2022-09-01T14:15:34;1.58;;;1.48;;
10442;SDS011;5269;51.146;16.986;2022-09-01T14:18:01;1.58;;;1.48;;
10442;SDS011;5269;51.146;16.986;2022-09-01T14:20:29;1.30;;;1.20;;
10442;SDS011;5269;51.146;16.986;2022-09-01T14:23:00;1.52;;;1.42;;
10442;SDS011;5269;51.146;16.986;2022-09-01T14:25:29;1.52;;;1.40;;
10442;SDS011;5269;51.146;16.986;2022-09-01T14:27:59;1.13;;;1.13;;
10442;SDS011;5269;51.146;16.986;2022-09-01T14:30:31;1.20;;;1.20;;
10442;SDS011;5269;51.146;16.986;2022-09-01T14:33:01;1.40;;;1.30;;
10442;SDS011;5269;51.146;16.986;2022-09-01T14:35:36;1.42;;;1.33;;
10442;SDS011;5269;51.146;16.986;2022-09-01T14:38:04;1.40;;;1.30;;
10442;SDS011;5269;51.146;16.986;2022-09-01T14:40:33;1.30;;;1.20;;
10442;SDS011;5269;51.146;16.986;2022-09-01T14:43:03;1.40;;;1.30;;
10442;SDS011;5269;51.146;16.986;2022-09-01T14:45:30;1.50;;;1.50;;
10442;SDS011;5269;51.146;16.986;2022-09-01T14:47:58;1.30;;;1.20;;
10442;SDS011;5269;51.146;16.986;2022-09-01T14:50:26;1.77;;;1.50;;
10442;SDS011;5269;51.146;16.986;2022-09-01T14:52:56;2.92;;;1.52;;
10442;SDS011;5269;51.146;16.986;2022-09-01T14:55:25;1.13;;;1.13;;
10442;SDS011;5269;51.146;16.986;2022-09-01T14:57:55;1.45;;;1.35;;
10442;SDS011;5269;51.146;16.986;2022-09-01T15:00:24;1.50;;;1.40;;
10442;SDS011;5269;51.146;16.986;2022-09-01T15:02:51;1.23;;;1.23;;
10442;SDS011;5269;51.146;16.986;2022-09-01T15:05:21;1.05;;;1.05;;
10442;SDS011;5269;51.146;16.986;2022-09-01T15:07:49;2.05;;;1.40;;
10442;SDS011;5269;51.146;16.986;2022-09-01T15:10:19;1.80;;;1.70;;
10442;SDS011;5269;51.146;16.986;2022-09-01T15:12:48;1.40;;;1.30;;
10442;SDS011;5269;51.146;16.986;2022-09-01T15:15:19;1.98;;;1.40;;
10442;SDS011;5269;51.146;16.986;2022-09-01T15:17:46;1.42;;;1.33;;
10442;SDS011;5269;51.146;16.986;2022-09-01T15:20:13;1.60;;;1.50;;
10442;SDS011;5269;51.146;16.986;2022-09-01T15:22:58;1.35;;;1.23;;
10442;SDS011;5269;51.146;16.986;2022-09-01T15:25:26;3.55;;;1.77;;
10442;SDS011;5269;51.146;16.986;2022-09-01T15:27:53;1.40;;;1.30;;
10442;SDS011;5269;51.146;16.986;2022-09-01T15:30:22;1.17;;;1.17;;
10442;SDS011;5269;51.146;16.986;2022-09-01T15:32:52;1.40;;;1.30;;
10442;SDS011;5269;51.146;16.986;2022-09-01T15:35:20;1.55;;;1.45;;
10442;SDS011;5269;51.146;16.986;2022-09-01T15:37:47;1.60;;;1.50;;
10442;SDS011;5269;51.146;16.986;2022-09-01T15:40:16;1.50;;;1.50;;
10442;SDS011;5269;51.146;16.986;2022-09-01T15:42:45;1.40;;;1.30;;
10442;SDS011;5269;51.146;16.986;2022-09-01T15:48:28;2.95;;;1.67;;
10442;SDS011;5269;51.146;16.986;2022-09-01T15:50:57;1.73;;;1.63;;
10442;SDS011;5269;51.146;16.986;2022-09-01T15:54:01;2.00;;;1.80;;
10442;SDS011;5269;51.146;16.986;2022-09-01T15:56:37;1.90;;;1.75;;
10442;SDS011;5269;51.146;16.986;2022-09-01T15:59:05;1.70;;;1.60;;
10442;SDS011;5269;51.146;16.986;2022-09-01T16:01:35;2.35;;;1.85;;
10442;SDS011;5269;51.146;16.986;2022-09-01T16:04:04;1.75;;;1.60;;
10442;SDS011;5269;51.146;16.986;2022-09-01T16:06:32;2.40;;;1.98;;
10442;SDS011;5269;51.146;16.986;2022-09-01T16:09:00;1.60;;;1.50;;
10442;SDS011;5269;51.146;16.986;2022-09-01T16:11:27;1.67;;;1.55;;
10442;SDS011;5269;51.146;16.986;2022-09-01T16:13:53;1.77;;;1.67;;
10442;SDS011;5269;51.146;16.986;2022-09-01T16:26:17;3.05;;;1.77;;
10442;SDS011;5269;51.146;16.986;2022-09-01T16:28:48;2.15;;;1.95;;
10442;SDS011;5269;51.146;16.986;2022-09-01T16:31:24;2.05;;;1.90;;
10442;SDS011;5269;51.146;16.986;2022-09-01T16:34:28;1.35;;;1.25;;
10442;SDS011;5269;51.146;16.986;2022-09-01T16:40:25;1.80;;;1.70;;
10442;SDS011;5269;51.146;16.986;2022-09-01T16:43:08;1.83;;;1.73;;
10442;SDS011;5269;51.146;16.986;2022-09-01T16:45:44;1.90;;;1.80;;
10442;SDS011;5269;51.146;16.986;2022-09-01T16:48:18;1.67;;;1.67;;
10442;SDS011;5269;51.146;16.986;2022-09-01T16:51:07;2.25;;;2.13;;
10442;SDS011;5269;51.146;16.986;2022-09-01T16:54:12;1.70;;;1.60;;
10442;SDS011;5269;51.146;16.986;2022-09-01T16:56:51;2.25;;;1.75;;
10442;SDS011;5269;51.146;16.986;2022-09-01T16:59:32;1.70;;;1.60;;
10442;SDS011;5269;51.146;16.986;2022-09-01T17:02:10;1.60;;;1.50;;
10442;SDS011;5269;51.146;16.986;2022-09-01T17:04:51;1.77;;;1.67;;
10442;SDS011;5269;51.146;16.986;2022-09-01T17:07:24;2.67;;;1.60;;
10442;SDS011;5269;51.146;16.986;2022-09-01T17:09:58;1.48;;;1.40;;
10442;SDS011;5269;51.146;16.986;2022-09-01T17:12:31;1.77;;;1.67;;
10442;SDS011;5269;51.146;16.986;2022-09-01T17:15:08;1.80;;;1.70;;
10442;SDS011;5269;51.146;16.986;2022-09-01T17:17:41;3.45;;;1.90;;
10442;SDS011;5269;51.146;16.986;2022-09-01T17:23:33;2.83;;;2.38;;
10442;SDS011;5269;51.146;16.986;2022-09-01T17:26:06;4.38;;;2.58;;
10442;SDS011;5269;51.146;16.986;2022-09-01T17:32:06;2.70;;;2.50;;
10442;SDS011;5269;51.146;16.986;2022-09-01T17:34:44;2.97;;;2.58;;
10442;SDS011;5269;51.146;16.986;2022-09-01T17:37:17;5.15;;;2.92;;
10442;SDS011;5269;51.146;16.986;2022-09-01T17:39:52;3.28;;;2.60;;
10442;SDS011;5269;51.146;16.986;2022-09-01T17:42:30;3.70;;;2.42;;
10442;SDS011;5269;51.146;16.986;2022-09-01T17:45:09;3.30;;;2.38;;
10442;SDS011;5269;51.146;16.986;2022-09-01T17:47:53;1.83;;;1.73;;
10442;SDS011;5269;51.146;16.986;2022-09-01T17:50:32;1.85;;;1.73;;
10442;SDS011;5269;51.146;16.986;2022-09-01T17:56:39;1.80;;;1.70;;
10442;SDS011;5269;51.146;16.986;2022-09-01T17:59:20;2.10;;;1.90;;
10442;SDS011;5269;51.146;16.986;2022-09-01T18:11:45;2.33;;;1.80;;
10442;SDS011;5269;51.146;16.986;2022-09-01T18:14:18;2.33;;;1.90;;
10442;SDS011;5269;51.146;16.986;2022-09-01T18:16:50;3.83;;;1.90;;
10442;SDS011;5269;51.146;16.986;2022-09-01T18:19:23;1.98;;;1.58;;
10442;SDS011;5269;51.146;16.986;2022-09-01T18:22:00;2.20;;;1.42;;
10442;SDS011;5269;51.146;16.986;2022-09-01T18:27:57;2.63;;;1.98;;